createdAt,value
2019-05-09T00:02:55.625Z,97491.27
2019-05-09T00:07:16.279Z,97491.27
2019-05-09T00:11:36.615Z,97487.15
2019-05-09T00:15:58.040Z,97491.17
2019-05-09T00:20:18.128Z,97493.66
2019-05-09T00:24:39.349Z,97505.12
2019-05-09T00:29:00.667Z,97505.12
2019-05-09T00:33:23.581Z,97505.44
2019-05-09T00:37:44.229Z,97502.34
2019-05-09T00:42:04.643Z,97507.12
2019-05-09T00:46:25.256Z,97507.12
2019-05-09T00:50:45.757Z,97507.48
2019-05-09T00:55:06.478Z,97512.22
2019-05-09T00:59:27.261Z,97512.09
2019-05-09T01:03:48.730Z,97512.94
2019-05-09T01:08:09.194Z,97506.00
2019-05-09T01:12:29.653Z,97498.12
2019-05-09T01:16:50.632Z,97499.97
2019-05-09T01:21:13.224Z,97497.47
2019-05-09T01:25:33.701Z,97497.47
2019-05-09T01:29:54.027Z,97493.59
2019-05-09T01:34:15.347Z,97498.48
2019-05-09T01:38:36.494Z,97499.34
2019-05-09T01:42:57.798Z,97497.42
2019-05-09T01:47:17.905Z,97501.47
2019-05-09T01:51:38.362Z,97496.34
2019-05-09T01:55:59.716Z,97496.05
2019-05-09T02:00:20.123Z,97503.72
2019-05-09T02:04:41.301Z,97500.22
2019-05-09T02:09:03.618Z,97494.48
2019-05-09T02:13:24.277Z,97496.90
2019-05-09T02:17:58.305Z,97491.29
2019-05-09T02:22:08.540Z,97482.41
2019-05-09T02:26:29.301Z,97485.28
2019-05-09T02:30:50.112Z,97475.70
2019-05-09T02:35:12.057Z,97476.09
2019-05-09T02:39:32.503Z,97463.42
2019-05-09T02:43:53.633Z,97461.63
2019-05-09T02:48:14.202Z,97455.56
2019-05-09T02:52:34.805Z,97464.41
2019-05-09T02:56:58.106Z,97455.20
2019-05-09T03:01:19.082Z,97458.30
2019-05-09T03:05:39.645Z,97454.98
2019-05-09T03:10:00.072Z,97461.92
2019-05-09T03:14:20.429Z,97463.84
2019-05-09T03:18:41.050Z,97460.12
2019-05-09T03:23:03.470Z,97460.12
2019-05-09T03:27:23.609Z,97455.48
2019-05-09T03:31:44.798Z,97458.70
2019-05-09T03:36:07.818Z,97445.23
2019-05-09T03:40:29.234Z,97445.23
2019-05-09T03:44:49.520Z,97443.70
2019-05-09T03:49:10.532Z,97436.82
2019-05-09T03:53:31.639Z,97435.37
2019-05-09T03:57:52.842Z,97432.07
2019-05-09T04:02:13.680Z,97431.13
2019-05-09T04:06:34.425Z,97439.28
2019-05-09T04:10:58.772Z,97441.95
2019-05-09T04:15:19.756Z,97443.91
2019-05-09T04:19:40.659Z,97443.33
2019-05-09T04:24:01.702Z,97441.34
2019-05-09T04:28:22.182Z,97437.59
2019-05-09T04:32:43.281Z,97437.45
2019-05-09T04:37:03.908Z,97444.15
2019-05-09T04:41:25.410Z,97451.75
2019-05-09T04:45:47.363Z,97451.75
2019-05-09T04:50:08.473Z,97449.14
2019-05-09T04:54:29.225Z,97449.59
2019-05-09T04:58:50.423Z,97453.05
2019-05-09T05:03:11.197Z,97452.56
2019-05-09T05:07:31.292Z,97457.31
2019-05-09T05:11:52.239Z,97466.67
2019-05-09T05:16:12.718Z,97452.03
2019-05-09T05:20:32.995Z,97452.03
2019-05-09T05:24:59.754Z,97452.27
2019-05-09T05:29:19.754Z,97460.42
2019-05-09T05:33:41.099Z,97457.64
2019-05-09T05:38:04.141Z,97459.05
2019-05-09T05:42:28.297Z,97461.52
2019-05-09T05:46:50.808Z,97469.67
2019-05-09T05:51:12.187Z,97467.70
2019-05-09T05:55:37.965Z,97469.15
2019-05-09T05:59:58.700Z,97470.46
2019-05-09T06:04:19.741Z,97472.91
2019-05-09T06:08:40.704Z,97472.91
2019-05-09T06:13:01.495Z,97474.18
2019-05-09T06:17:43.346Z,97469.47
2019-05-09T06:22:07.913Z,97469.47
2019-05-09T06:26:29.411Z,97475.72
2019-05-09T06:30:50.686Z,97463.41
2019-05-09T06:35:14.344Z,97462.89
2019-05-09T06:39:34.990Z,97459.22
2019-05-09T06:44:11.042Z,97465.69
2019-05-09T06:48:18.272Z,97465.69
2019-05-09T06:52:39.035Z,97467.52
2019-05-09T06:57:00.447Z,97469.87
2019-05-09T07:01:21.010Z,97463.69
2019-05-09T07:05:41.527Z,97460.25
2019-05-09T07:10:01.715Z,97460.07
2019-05-09T07:14:28.931Z,97457.32
2019-05-09T07:18:44.993Z,97453.71
2019-05-09T07:23:05.396Z,97455.79
2019-05-09T07:27:28.544Z,97460.07
2019-05-09T07:31:49.073Z,97449.06
2019-05-09T07:36:10.142Z,97454.56
2019-05-09T07:40:30.824Z,97454.73
2019-05-09T07:44:52.595Z,97451.19
2019-05-09T07:49:13.590Z,97447.11
2019-05-09T07:53:33.755Z,97452.02
2019-05-09T07:57:55.446Z,97458.42
2019-05-09T08:02:17.746Z,97461.73
2019-05-09T08:06:38.386Z,97458.84
2019-05-09T08:10:59.871Z,97454.56
2019-05-09T08:15:20.829Z,97445.41
2019-05-09T08:19:41.682Z,97443.43
2019-05-09T08:24:02.607Z,97440.98
2019-05-09T08:28:23.773Z,97442.16
2019-05-09T08:32:44.280Z,97433.83
2019-05-09T08:37:04.818Z,97439.06
2019-05-09T08:41:25.508Z,97437.00
2019-05-09T08:45:48.343Z,97445.80
2019-05-09T08:50:08.577Z,97438.61
2019-05-09T08:54:29.225Z,97428.48
2019-05-09T08:58:50.193Z,97434.46
2019-05-09T09:03:10.338Z,97426.97
2019-05-09T09:07:30.862Z,97419.95
2019-05-09T09:11:51.456Z,97420.69
2019-05-09T09:16:18.739Z,97420.08
2019-05-09T09:20:34.450Z,97418.16
2019-05-09T09:24:55.046Z,97419.02
2019-05-09T09:29:17.738Z,97421.62
2019-05-09T09:33:38.469Z,97424.00
2019-05-09T09:37:59.914Z,97420.14
2019-05-09T09:42:20.386Z,97425.31
2019-05-09T09:46:41.254Z,97421.23
2019-05-09T09:51:02.490Z,97424.34
2019-05-09T09:55:23.224Z,97419.59
2019-05-09T09:59:43.456Z,97423.50
2019-05-09T10:04:19.063Z,97424.42
2019-05-09T10:08:26.896Z,97413.40
2019-05-09T10:12:49.418Z,97416.56
2019-05-09T10:17:10.460Z,97419.77
2019-05-09T10:21:31.040Z,97422.07
2019-05-09T10:25:51.683Z,97422.07
2019-05-09T10:30:12.232Z,97423.34
2019-05-09T10:34:33.245Z,97419.39
2019-05-09T10:38:53.428Z,97422.65
2019-05-09T10:43:14.159Z,97430.59
2019-05-09T10:47:34.904Z,97445.27
2019-05-09T10:51:58.064Z,97431.76
2019-05-09T10:56:19.033Z,97439.55
2019-05-09T11:00:39.814Z,97446.47
2019-05-09T11:05:00.547Z,97437.34
2019-05-09T11:09:21.276Z,97437.37
2019-05-09T11:13:41.480Z,97436.02
2019-05-09T11:18:02.016Z,97434.81
2019-05-09T11:22:23.593Z,97432.16
2019-05-09T11:26:44.754Z,97436.88
2019-05-09T11:31:07.885Z,97445.34
2019-05-09T11:35:28.156Z,97448.65
2019-05-09T11:39:48.443Z,97452.30
2019-05-09T11:44:08.835Z,97455.03
2019-05-09T11:48:30.477Z,97461.62
2019-05-09T11:52:51.004Z,97469.31
2019-05-09T11:57:12.176Z,97463.13
2019-05-09T12:01:32.627Z,97468.78
2019-05-09T12:05:52.824Z,97474.23
2019-05-09T12:10:13.532Z,97476.46
2019-05-09T12:14:34.219Z,97471.05
2019-05-09T12:18:54.498Z,97479.02
2019-05-09T12:23:14.983Z,97473.64
2019-05-09T12:27:36.136Z,97478.48
2019-05-09T12:31:56.524Z,97486.37
2019-05-09T12:36:19.126Z,97485.31
2019-05-09T12:40:39.874Z,97482.27
2019-05-09T12:45:00.347Z,97488.16
2019-05-09T12:49:20.780Z,97496.06
2019-05-09T12:53:41.809Z,97491.90
2019-05-09T12:58:02.511Z,97487.63
2019-05-09T13:02:23.655Z,97495.38
2019-05-09T13:06:44.081Z,97506.44
2019-05-09T13:11:04.804Z,97513.64
2019-05-09T13:15:30.559Z,97523.64
2019-05-09T13:19:49.107Z,97525.48
2019-05-09T13:24:10.203Z,97513.63
2019-05-09T13:28:31.633Z,97518.72
2019-05-09T13:32:52.246Z,97526.78
2019-05-09T13:37:13.106Z,97524.91
2019-05-09T13:41:33.406Z,97537.80
2019-05-09T13:45:54.482Z,97529.72
2019-05-09T13:50:15.011Z,97538.11
2019-05-09T13:54:38.061Z,97547.33
2019-05-09T13:58:58.386Z,97557.42
2019-05-09T14:03:19.390Z,97562.34
2019-05-09T14:07:40.393Z,97562.13
2019-05-09T14:12:01.724Z,97560.04
2019-05-09T14:16:22.605Z,97570.70
2019-05-09T14:20:43.133Z,97574.80
2019-05-09T14:25:03.864Z,97578.81
2019-05-09T14:29:25.153Z,97585.69
2019-05-09T14:33:47.590Z,97593.03
2019-05-09T14:38:09.268Z,97595.80
2019-05-09T14:42:30.634Z,97597.72
2019-05-09T14:46:52.518Z,97599.13
2019-05-09T14:51:14.133Z,97608.28
2019-05-09T14:55:34.779Z,97606.53
2019-05-09T14:59:58.474Z,97617.66
2019-05-09T15:04:19.324Z,97625.88
2019-05-09T15:08:39.786Z,97624.59
2019-05-09T15:13:01.451Z,97625.85
2019-05-09T15:17:22.510Z,97637.97
2019-05-09T15:21:43.925Z,97642.20
2019-05-09T15:26:04.619Z,97638.78
2019-05-09T15:30:28.418Z,97636.88
2019-05-09T15:34:47.928Z,97634.70
2019-05-09T15:39:08.761Z,97639.89
2019-05-09T15:43:29.671Z,97637.63
2019-05-09T15:47:50.616Z,97634.58
2019-05-09T15:52:11.936Z,97644.89
2019-05-09T15:56:32.843Z,97646.49
2019-05-09T16:00:53.886Z,97654.05
2019-05-09T16:05:14.391Z,97654.05
2019-05-09T16:09:37.965Z,97660.55
2019-05-09T16:13:58.958Z,97667.52
2019-05-09T16:18:20.188Z,97661.78
2019-05-09T16:22:41.916Z,97662.67
2019-05-09T16:27:03.518Z,97658.89
2019-05-09T16:31:24.193Z,97674.41
2019-05-09T16:35:45.643Z,97667.27
2019-05-09T16:40:08.447Z,97662.55
2019-05-09T16:44:29.778Z,97670.88
2019-05-09T16:48:50.131Z,97675.97
2019-05-09T16:53:11.118Z,97680.28
2019-05-09T16:57:32.226Z,97684.80
2019-05-09T17:01:52.677Z,97690.98
2019-05-09T17:06:12.773Z,97700.83
2019-05-09T17:10:33.889Z,97700.98
2019-05-09T17:14:54.343Z,97708.27
2019-05-09T17:19:19.242Z,97708.77
2019-05-09T17:23:38.440Z,97709.58
2019-05-09T17:27:59.589Z,97709.65
2019-05-09T17:32:20.713Z,97714.77
2019-05-09T17:36:41.126Z,97713.30
2019-05-09T17:41:01.418Z,97728.02
2019-05-09T17:45:21.965Z,97731.19
2019-05-09T17:49:43.197Z,97727.45
2019-05-09T17:54:03.923Z,97733.28
2019-05-09T17:58:30.486Z,97728.58
2019-05-09T18:02:48.597Z,97732.78
2019-05-09T18:07:09.066Z,97743.41
2019-05-09T18:11:29.747Z,97748.97
2019-05-09T18:15:50.178Z,97764.14
2019-05-09T18:20:11.178Z,97769.61
2019-05-09T18:24:37.740Z,97765.83
2019-05-09T18:29:01.718Z,97769.58
2019-05-09T18:33:21.717Z,97776.53
2019-05-09T18:37:42.042Z,97780.75
2019-05-09T18:42:03.566Z,97776.58
2019-05-09T18:46:24.121Z,97781.23
2019-05-09T18:50:45.103Z,97825.98
2019-05-09T18:55:06.050Z,97863.97
2019-05-09T18:59:27.011Z,97872.34
2019-05-09T19:03:47.758Z,97875.83
2019-05-09T19:08:08.148Z,97892.51
2019-05-09T19:12:28.481Z,97890.92
2019-05-09T19:16:48.698Z,97896.92
2019-05-09T19:21:09.128Z,97912.74
2019-05-09T19:25:29.657Z,97915.12
2019-05-09T19:29:50.042Z,97921.05
2019-05-09T19:34:10.472Z,97924.39
2019-05-09T19:38:31.030Z,97928.71
2019-05-09T19:42:51.694Z,97935.14
2019-05-09T19:47:12.534Z,97932.75
2019-05-09T19:51:33.524Z,97932.55
2019-05-09T19:55:54.964Z,97927.71
2019-05-09T20:00:18.856Z,97938.95
2019-05-09T20:04:39.881Z,97946.36
2019-05-09T20:09:01.038Z,97958.86
2019-05-09T20:13:21.715Z,97963.78
2019-05-09T20:17:42.003Z,97966.06
2019-05-09T20:22:02.914Z,97976.48
2019-05-09T20:26:23.743Z,97966.48
2019-05-09T20:30:44.696Z,97984.70
2019-05-09T20:35:05.615Z,97996.17
2019-05-09T20:39:26.366Z,97999.52
2019-05-09T20:43:46.823Z,98004.04
2019-05-09T20:48:07.209Z,98004.12
2019-05-09T20:52:27.764Z,98011.38
2019-05-09T20:56:48.832Z,98017.59
2019-05-09T21:01:09.343Z,98034.33
2019-05-09T21:05:30.097Z,98032.72
2019-05-09T21:09:50.992Z,98044.05
2019-05-09T21:14:11.524Z,98043.81
2019-05-09T21:18:32.207Z,98052.93
2019-05-09T21:22:53.052Z,98055.58
2019-05-09T21:27:13.797Z,98055.74
2019-05-09T21:31:35.031Z,98068.19
2019-05-09T21:35:55.472Z,98064.30
2019-05-09T21:40:16.353Z,98073.44
2019-05-09T21:44:36.892Z,98072.84
2019-05-09T21:48:57.932Z,98081.27
2019-05-09T21:53:18.794Z,98092.27
2019-05-09T21:57:38.760Z,98096.95
2019-05-09T22:01:59.834Z,98096.95
2019-05-09T22:06:20.646Z,98098.48
2019-05-09T22:10:41.243Z,98099.48
2019-05-09T22:15:04.040Z,98102.43
2019-05-09T22:19:25.155Z,98103.19
2019-05-09T22:23:56.468Z,98106.64
2019-05-09T22:28:13.245Z,98111.53
2019-05-09T22:32:33.550Z,98111.16
2019-05-09T22:36:55.108Z,98112.02
2019-05-09T22:41:15.852Z,98120.02
2019-05-09T22:45:36.111Z,98120.02
2019-05-09T22:49:56.238Z,98116.64
2019-05-09T22:54:16.371Z,98128.52
2019-05-09T22:58:36.475Z,98127.25
2019-05-09T23:02:58.107Z,98132.00
2019-05-09T23:07:18.812Z,98136.55
2019-05-09T23:11:39.043Z,98136.55
2019-05-09T23:15:59.797Z,98144.27
2019-05-09T23:20:20.374Z,98144.27
2019-05-09T23:24:44.406Z,98136.26
2019-05-09T23:29:03.572Z,98144.94
2019-05-09T23:33:24.191Z,98149.96
2019-05-09T23:37:44.898Z,98144.34
2019-05-09T23:42:05.821Z,98152.78
2019-05-09T23:46:26.392Z,98156.83
2019-05-09T23:50:47.033Z,98159.45
2019-05-09T23:55:07.856Z,98155.68
2019-05-09T23:59:28.447Z,98151.75
